| time (UTC) | temp C | wind direction | speed KPH | gust KPH | rain 1hr cm | rain 24hr cm | rain mn cm | humidity % | barometer mb |
| 20260507112622 | 21 | 208 | 4.8 | 11.3 | 0.00 | 0.43 | 0.03 | 42 | 1012.0 |
| 20260507111510 | 21 | 205 | 3.2 | 12.9 | 0.00 | 0.43 | 0.03 | 43 | 1011.9 |
| 20260507110610 | 21 | 190 | 1.6 | 6.4 | 0.00 | 0.46 | 0.03 | 46 | 1012.0 |
| 20260507105924 | 21 | 221 | 4.8 | 12.9 | 0.00 | 0.46 | 0.03 | 46 | 1012.1 |
| 20260507105021 | 21 | 192 | 3.2 | 12.9 | 0.00 | 0.46 | 0.03 | 45 | 1012.1 |
| 20260507104124 | 21 | 210 | 3.2 | 11.3 | 0.00 | 0.46 | 0.03 | 51 | 1012.2 |
| 20260507103010 | 20 | 228 | 3.2 | 11.3 | 0.00 | 0.46 | 0.03 | 52 | 1012.3 |
| 20260507102110 | 20 | 223 | 4.8 | 16.1 | 0.00 | 0.46 | 0.03 | 49 | 1012.3 |
| 20260507101210 | 20 | 203 | 0.0 | 6.4 | 0.00 | 0.46 | 0.03 | 52 | 1012.4 |
| 20260507100310 | 20 | 160 | 1.6 | 6.4 | 0.00 | 0.46 | 0.03 | 57 | 1012.5 |
| 20260507095620 | 20 | 214 | 3.2 | 11.3 | 0.00 | 0.46 | 0.03 | 58 | 1012.5 |
| 20260507094510 | 20 | 216 | 3.2 | 11.3 | 0.00 | 0.48 | 0.03 | 59 | 1012.5 |
| 20260507093610 | 19 | 221 | 3.2 | 12.9 | 0.00 | 0.48 | 0.03 | 61 | 1012.4 |
| 20260507092710 | 19 | 240 | 3.2 | 11.3 | 0.00 | 0.48 | 0.03 | 60 | 1012.4 |
| 20260507092020 | 19 | 221 | 3.2 | 9.7 | 0.00 | 0.48 | 0.03 | 59 | 1012.3 |
| 20260507091122 | 20 | 226 | 1.6 | 9.7 | 0.00 | 0.48 | 0.03 | 60 | 1012.4 |
| 20260507090225 | 21 | 190 | 1.6 | 8.0 | 0.00 | 0.48 | 0.03 | 66 | 1012.4 |
| 20260507085110 | 20 | 211 | 3.2 | 8.0 | 0.00 | 0.48 | 0.03 | 68 | 1012.3 |
| 20260507084424 | 20 | 221 | 1.6 | 6.4 | 0.00 | 0.48 | 0.03 | 72 | 1012.3 |
| 20260507083310 | 18 | 212 | 3.2 | 9.7 | 0.00 | 0.48 | 0.03 | 73 | 1012.4 |
| 20260507082624 | 18 | 224 | 4.8 | 12.9 | 0.00 | 0.48 | 0.03 | 72 | 1012.3 |
| 20260507081721 | 19 | 181 | 1.6 | 6.4 | 0.00 | 0.48 | 0.03 | 76 | 1012.2 |
| 20260507080610 | 18 | 43 | 1.6 | 4.8 | 0.03 | 0.48 | 0.03 | 83 | 1012.2 |
| 20260507075710 | 17 | 296 | 0.0 | 4.8 | 0.03 | 0.48 | 0.03 | 84 | 1012.2 |
| 20260507074810 | 18 | 314 | 1.6 | 6.4 | 0.03 | 0.48 | 0.03 | 85 | 1012.1 |
| 20260507073911 | 17 | 23 | 3.2 | 9.7 | 0.03 | 0.48 | 0.03 | 89 | 1012.1 |
| 20260507073223 | 17 | 13 | 3.2 | 9.7 | 0.03 | 0.48 | 0.03 | 91 | 1012.0 |
| 20260507072111 | 16 | 347 | 3.2 | 8.0 | 0.03 | 0.48 | 0.03 | 96 | 1012.1 |
| 20260507071423 | 16 | 9 | 1.6 | 6.4 | 0.00 | 0.46 | 0.00 | 99 | 1012.0 |
| 20260507070520 | 16 | 265 | 0.0 | 4.8 | 0.00 | 0.46 | 0.00 | 99 | 1012.1 |
| 20260507065410 | 15 | 6 | 1.6 | 6.4 | 0.00 | 0.46 | 0.00 | 99 | 1012.1 |
| 20260507064720 | 15 | 331 | 0.0 | 6.4 | 0.00 | 0.46 | 0.00 | 99 | 1012.0 |
| 20260507063822 | 15 | 282 | 0.0 | 3.2 | 0.00 | 0.46 | 0.00 | 99 | 1011.9 |
| 20260507062710 | 14 | 27 | 0.0 | 3.2 | 0.00 | 0.46 | 0.00 | 99 | 1011.9 |
| 20260507061810 | 13 | 190 | 0.0 | 3.2 | 0.00 | 0.46 | 0.00 | 99 | 1011.8 |
| 20260507060910 | 13 | 225 | 0.0 | 1.6 | 0.00 | 0.46 | 0.00 | 99 | 1011.8 |
| 20260507060221 | 13 | 216 | 0.0 | 4.8 | 0.00 | 0.46 | 0.00 | 99 | 1011.8 |
| 20260507055324 | 13 | 231 | 0.0 | 3.2 | 0.00 | 0.46 | 0.00 | 99 | 1011.9 |
| 20260507054210 | 13 | 225 | 0.0 | 1.6 | 0.00 | 0.46 | 0.00 | 99 | 1011.7 |
| 20260507053523 | 13 | 239 | 0.0 | 3.2 | 0.00 | 0.46 | 0.00 | 99 | 1011.6 |
| 20260507052621 | 12 | 237 | 0.0 | 3.2 | 0.00 | 0.46 | 0.00 | 99 | 1011.6 |
| 20260507051723 | 12 | 249 | 0.0 | 3.2 | 0.00 | 0.46 | 0.00 | 99 | 1011.4 |
| 20260507050610 | 12 | 254 | 0.0 | 3.2 | 0.00 | 0.46 | 0.00 | 99 | 1011.4 |
| 20260507045923 | 12 | 0 | 0.0 | 0.0 | 0.00 | 0.46 | 0.00 | 99 | 1011.3 |
| 20260507045020 | 12 | 0 | 0.0 | 0.0 | 0.00 | 0.46 | 0.00 | 99 | 1011.2 |
| 20260507043910 | 12 | 0 | 0.0 | 0.0 | 0.00 | 0.46 | 0.00 | 99 | 1011.0 |
| 20260507043220 | 12 | 0 | 0.0 | 0.0 | 0.00 | 0.46 | 0.00 | 99 | 1010.8 |
| 20260507042322 | 12 | 0 | 0.0 | 0.0 | 0.00 | 0.46 | 0.00 | 99 | 1010.6 |
| 20260507041419 | 12 | 0 | 0.0 | 0.0 | 0.00 | 0.46 | 0.00 | 99 | 1010.6 |
| 20260507040310 | 12 | 85 | 0.0 | 3.2 | 0.00 | 0.46 | 0.00 | 99 | 1010.5 |
| 20260507035624 | 12 | 77 | 0.0 | 3.2 | 0.00 | 0.46 | 0.00 | 99 | 1010.6 |
| 20260507034722 | 12 | 360 | 0.0 | 4.8 | 0.00 | 0.46 | 0.00 | 99 | 1010.5 |
| 20260507033824 | 12 | 13 | 0.0 | 4.8 | 0.00 | 0.46 | 0.00 | 99 | 1010.3 |
| 20260507032921 | 13 | 28 | 0.0 | 6.4 | 0.00 | 0.46 | 0.00 | 99 | 1010.4 |
| 20260507032024 | 13 | 346 | 0.0 | 4.8 | 0.00 | 0.46 | 0.00 | 99 | 1010.4 |
| 20260507031121 | 13 | 315 | 0.0 | 3.2 | 0.00 | 0.46 | 0.00 | 99 | 1010.4 |
| 20260507030010 | 13 | 358 | 0.0 | 3.2 | 0.00 | 0.46 | 0.00 | 99 | 1010.4 |
| 20260507025321 | 13 | 21 | 0.0 | 3.2 | 0.00 | 0.46 | 0.00 | 99 | 1010.4 |
| 20260507024210 | 13 | 90 | 0.0 | 3.2 | 0.00 | 0.46 | 0.00 | 99 | 1010.4 |
| 20260507023520 | 13 | 42 | 0.0 | 4.8 | 0.00 | 0.46 | 0.00 | 99 | 1010.5 |
| 20260507022623 | 13 | 14 | 3.2 | 6.4 | 0.00 | 0.46 | 0.00 | 99 | 1010.4 |
| 20260507021510 | 13 | 1 | 3.2 | 8.0 | 0.00 | 0.46 | 0.00 | 99 | 1010.4 |
| 20260507020610 | 13 | 341 | 3.2 | 9.7 | 0.00 | 0.46 | 0.00 | 99 | 1010.5 |
| 20260507015710 | 13 | 13 | 1.6 | 9.7 | 0.00 | 0.46 | 0.00 | 99 | 1010.5 |
| 20260507014810 | 13 | 14 | 3.2 | 6.4 | 0.00 | 0.46 | 0.00 | 99 | 1010.3 |
| 20260507014124 | 13 | 12 | 3.2 | 8.0 | 0.00 | 0.46 | 0.00 | 99 | 1010.2 |
| 20260507013222 | 13 | 339 | 0.0 | 4.8 | 0.00 | 0.46 | 0.00 | 99 | 1010.4 |
| 20260507012110 | 13 | 8 | 1.6 | 4.8 | 0.00 | 0.46 | 0.00 | 99 | 1010.3 |
| 20260507010524 | 12 | 3 | 0.0 | 4.8 | 0.00 | 0.46 | 0.00 | 99 | 1010.3 |
| 20260507005410 | 12 | 3 | 1.6 | 6.4 | 0.00 | 0.46 | 0.00 | 99 | 1010.4 |
| 20260507004723 | 12 | 10 | 3.2 | 6.4 | 0.00 | 0.46 | 0.00 | 99 | 1010.2 |
| 20260507003610 | 12 | 1 | 3.2 | 6.4 | 0.00 | 0.46 | 0.00 | 99 | 1010.2 |
| 20260507002710 | 13 | 21 | 1.6 | 6.4 | 0.00 | 0.46 | 0.00 | 99 | 1010.2 |
| 20260507002020 | 13 | 15 | 1.6 | 6.4 | 0.00 | 0.46 | 0.00 | 99 | 1010.3 |
| 20260507000910 | 12 | 0 | 0.0 | 0.0 | 0.00 | 0.46 | 0.00 | 99 | 1010.2 |
| 20260507000220 | 12 | 270 | 0.0 | 3.2 | 0.00 | 0.46 | 0.00 | 99 | 1010.3 |
| 20260506235323 | 12 | 360 | 0.0 | 3.2 | 0.00 | 0.46 | 0.00 | 99 | 1010.2 |
| 20260506234420 | 12 | 0 | 0.0 | 0.0 | 0.00 | 0.46 | 0.00 | 99 | 1010.2 |
| 20260506233310 | 13 | 360 | 0.0 | 3.2 | 0.00 | 0.46 | 0.00 | 99 | 1010.1 |
| 20260506232619 | 13 | 20 | 0.0 | 4.8 | 0.00 | 0.46 | 0.00 | 99 | 1010.1 |
| 20260506231722 | 13 | 13 | 3.2 | 6.4 | 0.00 | 0.46 | 0.00 | 99 | 1010.1 |
| 20260506230824 | 13 | 8 | 1.6 | 6.4 | 0.00 | 0.46 | 0.00 | 99 | 1010.1 |
| 20260506225922 | 13 | 2 | 1.6 | 4.8 | 0.00 | 0.46 | 0.00 | 99 | 1010.2 |
| 20260506225024 | 13 | 357 | 0.0 | 4.8 | 0.00 | 0.46 | 0.00 | 99 | 1010.0 |
| 20260506224121 | 13 | 0 | 0.0 | 0.0 | 0.00 | 0.46 | 0.00 | 98 | 1010.1 |
| 20260506223010 | 13 | 0 | 0.0 | 0.0 | 0.00 | 0.46 | 0.00 | 98 | 1010.2 |
| 20260506222321 | 13 | 0 | 0.0 | 0.0 | 0.00 | 0.46 | 0.00 | 98 | 1010.3 |
| 20260506221211 | 13 | 14 | 0.0 | 6.4 | 0.00 | 0.46 | 0.00 | 98 | 1010.1 |
| 20260506220310 | 13 | 16 | 1.6 | 6.4 | 0.00 | 0.46 | 0.00 | 97 | 1010.0 |
| 20260506215623 | 13 | 360 | 1.6 | 6.4 | 0.00 | 0.46 | 0.46 | 98 | 1010.1 |
| 20260506214720 | 13 | 9 | 0.0 | 4.8 | 0.00 | 0.46 | 0.46 | 97 | 1010.1 |
| 20260506213610 | 13 | 358 | 1.6 | 4.8 | 0.00 | 0.46 | 0.46 | 97 | 1010.0 |
| 20260506212920 | 13 | 2 | 0.0 | 6.4 | 0.00 | 0.46 | 0.46 | 97 | 1010.1 |
| 20260506211810 | 14 | 349 | 0.0 | 3.2 | 0.00 | 0.46 | 0.46 | 96 | 1010.1 |
| 20260506211120 | 14 | 45 | 0.0 | 3.2 | 0.00 | 0.46 | 0.46 | 96 | 1010.1 |
| 20260506210222 | 14 | 19 | 0.0 | 6.4 | 0.00 | 0.46 | 0.46 | 96 | 1010.0 |
| 20260506205110 | 14 | 19 | 0.0 | 3.2 | 0.00 | 0.46 | 0.46 | 96 | 1009.8 |
| 20260506204422 | 14 | 30 | 0.0 | 3.2 | 0.00 | 0.46 | 0.46 | 96 | 1010.1 |
| 20260506203310 | 14 | 22 | 1.6 | 4.8 | 0.00 | 0.46 | 0.46 | 95 | 1010.0 |
| 20260506202622 | 14 | 25 | 0.0 | 4.8 | 0.00 | 0.46 | 0.46 | 95 | 1009.9 |
| 20260506201510 | 14 | 20 | 0.0 | 4.8 | 0.00 | 0.46 | 0.46 | 95 | 1009.9 |
| 20260506200610 | 15 | 43 | 0.0 | 3.2 | 0.00 | 0.46 | 0.46 | 95 | 1009.8 |
| 20260506195923 | 15 | 315 | 0.0 | 1.6 | 0.00 | 0.46 | 0.46 | 95 | 1009.8 |
| 20260506194810 | 15 | 0 | 0.0 | 0.0 | 0.00 | 0.46 | 0.46 | 95 | 1009.7 |
| 20260506193910 | 15 | 0 | 0.0 | 0.0 | 0.00 | 0.46 | 0.46 | 94 | 1009.5 |
| 20260506193220 | 15 | 33 | 0.0 | 4.8 | 0.00 | 0.46 | 0.46 | 94 | 1009.5 |
| 20260506192323 | 15 | 13 | 1.6 | 6.4 | 0.00 | 0.46 | 0.46 | 94 | 1009.4 |
| 20260506191210 | 15 | 39 | 3.2 | 6.4 | 0.00 | 0.46 | 0.46 | 94 | 1009.4 |
| 20260506190524 | 15 | 27 | 3.2 | 6.4 | 0.00 | 0.46 | 0.46 | 94 | 1009.3 |
| 20260506185410 | 15 | 9 | 1.6 | 6.4 | 0.00 | 0.46 | 0.46 | 94 | 1009.3 |
| 20260506184722 | 15 | 14 | 0.0 | 6.4 | 0.00 | 0.46 | 0.46 | 94 | 1009.3 |
| 20260506183819 | 15 | 7 | 1.6 | 6.4 | 0.00 | 0.46 | 0.46 | 94 | 1009.1 |
| 20260506182922 | 15 | 2 | 3.2 | 8.0 | 0.00 | 0.46 | 0.46 | 94 | 1009.1 |
| 20260506181811 | 15 | 7 | 1.6 | 6.4 | 0.00 | 0.46 | 0.46 | 94 | 1008.8 |
| 20260506181122 | 15 | 15 | 1.6 | 6.4 | 0.00 | 0.46 | 0.46 | 93 | 1009.1 |
| 20260506180224 | 15 | 4 | 1.6 | 6.4 | 0.00 | 0.46 | 0.46 | 93 | 1008.9 |
| 20260506175321 | 16 | 347 | 0.0 | 4.8 | 0.00 | 0.46 | 0.46 | 93 | 1008.7 |
| 20260506174210 | 16 | 0 | 0.0 | 0.0 | 0.00 | 0.46 | 0.46 | 93 | 1008.7 |
| 20260506173521 | 16 | 0 | 0.0 | 0.0 | 0.00 | 0.46 | 0.46 | 93 | 1008.7 |
| 20260506172411 | 16 | 360 | 0.0 | 1.6 | 0.00 | 0.46 | 0.46 | 92 | 1008.8 |
| 20260506171721 | 16 | 0 | 0.0 | 0.0 | 0.00 | 0.46 | 0.46 | 92 | 1008.6 |
| 20260506170611 | 16 | 97 | 0.0 | 4.8 | 0.00 | 0.46 | 0.46 | 92 | 1008.7 |
| 20260506165710 | 16 | 110 | 0.0 | 6.4 | 0.00 | 0.46 | 0.46 | 92 | 1008.6 |
| 20260506164810 | 16 | 85 | 0.0 | 6.4 | 0.00 | 0.48 | 0.46 | 92 | 1008.6 |
| 20260506163910 | 16 | 101 | 0.0 | 4.8 | 0.00 | 0.48 | 0.46 | 93 | 1008.7 |
| 20260506163222 | 16 | 120 | 0.0 | 4.8 | 0.00 | 0.48 | 0.46 | 93 | 1008.8 |
| 20260506162110 | 16 | 175 | 0.0 | 6.4 | 0.00 | 0.48 | 0.46 | 94 | 1008.9 |
| 20260506161422 | 16 | 0 | 0.0 | 0.0 | 0.00 | 0.48 | 0.46 | 95 | 1008.8 |
| 20260506160310 | 16 | 0 | 0.0 | 0.0 | 0.00 | 0.48 | 0.46 | 95 | 1008.8 |
| 20260506155410 | 15 | 161 | 0.0 | 6.4 | 0.00 | 0.48 | 0.46 | 95 | 1008.7 |
| 20260506154510 | 16 | 208 | 0.0 | 6.4 | 0.00 | 0.48 | 0.46 | 96 | 1008.6 |
| 20260506153821 | 16 | 135 | 0.0 | 3.2 | 0.00 | 0.48 | 0.46 | 96 | 1008.5 |
| 20260506152924 | 15 | 98 | 1.6 | 12.9 | 0.00 | 0.51 | 0.46 | 96 | 1008.6 |
| 20260506152021 | 15 | 96 | 0.0 | 6.4 | 0.00 | 0.53 | 0.46 | 96 | 1008.6 |
| 20260506150910 | 16 | 20 | 1.6 | 4.8 | 0.05 | 0.53 | 0.46 | 96 | 1008.7 |
| 20260506150221 | 16 | 40 | 1.6 | 6.4 | 0.13 | 0.53 | 0.46 | 96 | 1008.7 |
| 20260506145110 | 15 | 31 | 0.0 | 6.4 | 0.18 | 0.53 | 0.46 | 96 | 1008.7 |
| 20260506144210 | 15 | 71 | 0.0 | 6.4 | 0.28 | 0.56 | 0.46 | 95 | 1008.7 |
| 20260506143523 | 15 | 83 | 1.6 | 9.7 | 0.33 | 0.56 | 0.46 | 95 | 1008.6 |
| 20260506142620 | 15 | 88 | 1.6 | 6.4 | 0.38 | 0.56 | 0.46 | 94 | 1008.7 |
| 20260506141510 | 15 | 95 | 1.6 | 8.0 | 0.36 | 0.56 | 0.43 | 92 | 1008.9 |
| 20260506140820 | 16 | 112 | 1.6 | 4.8 | 0.28 | 0.48 | 0.33 | 90 | 1009.1 |
| 20260506135922 | 16 | 124 | 0.0 | 4.8 | 0.28 | 0.48 | 0.33 | 90 | 1009.2 |
| 20260506135019 | 16 | 135 | 0.0 | 3.2 | 0.18 | 0.38 | 0.23 | 88 | 1009.4 |
| 20260506133910 | 16 | 138 | 0.0 | 9.7 | 0.10 | 0.30 | 0.15 | 86 | 1009.4 |
| 20260506133224 | 16 | 149 | 0.0 | 6.4 | 0.03 | 0.23 | 0.10 | 85 | 1009.3 |
| 20260506132322 | 16 | 135 | 1.6 | 9.7 | 0.00 | 0.20 | 0.05 | 83 | 1009.3 |
| 20260506131424 | 17 | 125 | 1.6 | 9.7 | 0.00 | 0.20 | 0.05 | 83 | 1009.4 |
| 20260506130310 | 17 | 152 | 1.6 | 8.0 | 0.00 | 0.20 | 0.05 | 83 | 1009.5 |
| 20260506125410 | 17 | 151 | 3.2 | 19.3 | 0.00 | 0.20 | 0.05 | 82 | 1009.4 |
| 20260506124721 | 17 | 143 | 1.6 | 19.3 | 0.00 | 0.23 | 0.05 | 82 | 1009.5 |
| 20260506123610 | 17 | 153 | 3.2 | 12.9 | 0.00 | 0.28 | 0.05 | 83 | 1009.5 |
| 20260506122921 | 17 | 135 | 3.2 | 11.3 | 0.00 | 0.30 | 0.05 | 86 | 1009.5 |
| 20260506122023 | 17 | 133 | 1.6 | 9.7 | 0.00 | 0.30 | 0.05 | 89 | 1009.5 |
| 20260506120910 | 16 | 180 | 0.0 | 9.7 | 0.03 | 0.33 | 0.05 | 92 | 1009.7 |
| 20260506120223 | 16 | 168 | 1.6 | 6.4 | 0.03 | 0.33 | 0.05 | 91 | 1009.7 |
| 20260506115110 | 16 | 110 | 0.0 | 6.4 | 0.03 | 0.33 | 0.05 | 92 | 1009.9 |
| 20260506114210 | 16 | 96 | 0.0 | 6.4 | 0.03 | 0.33 | 0.05 | 92 | 1009.8 |
| 20260506113520 | 16 | 147 | 0.0 | 3.2 | 0.03 | 0.36 | 0.05 | 93 | 1009.9 |